createdAt,value
2019-04-29T00:04:41.365Z,7.50
2019-04-29T00:09:47.998Z,7.40
2019-04-29T00:15:11.755Z,7.30
2019-04-29T00:20:37.415Z,7.30
2019-04-29T00:25:44.830Z,7.20
2019-04-29T00:30:51.740Z,7.20
2019-04-29T00:35:58.461Z,7.20
2019-04-29T00:41:42.449Z,7.10
2019-04-29T00:46:49.659Z,7.20
2019-04-29T00:51:58.322Z,7.20
2019-04-29T00:57:05.319Z,7.20
2019-04-29T01:02:12.030Z,7.20
2019-04-29T01:07:18.661Z,7.20
2019-04-29T01:12:25.301Z,7.20
2019-04-29T01:17:31.841Z,7.20
2019-04-29T01:22:38.447Z,7.10
2019-04-29T01:27:51.854Z,7.10
2019-04-29T01:32:58.577Z,7.10
2019-04-29T01:38:05.283Z,7.10
2019-04-29T01:43:11.888Z,7.10
2019-04-29T01:48:18.380Z,7.10
2019-04-29T01:53:24.844Z,7.00
2019-04-29T01:58:31.359Z,7.00
2019-04-29T02:03:37.982Z,6.90
2019-04-29T02:08:44.705Z,6.80
2019-04-29T02:13:51.302Z,6.90
2019-04-29T02:18:57.838Z,6.80
2019-04-29T02:24:12.326Z,6.80
2019-04-29T02:29:18.921Z,6.90
2019-04-29T02:34:25.485Z,6.90
2019-04-29T02:39:43.448Z,6.80
2019-04-29T02:44:51.215Z,6.80
2019-04-29T02:49:57.827Z,6.70
2019-04-29T02:55:06.356Z,6.70
2019-04-29T03:00:32.268Z,6.60
2019-04-29T03:05:45.780Z,6.50
2019-04-29T03:10:52.396Z,6.40
2019-04-29T03:15:59.513Z,6.40
2019-04-29T03:21:12.658Z,6.40
2019-04-29T03:26:19.258Z,6.30
2019-04-29T03:31:26.000Z,6.30
2019-04-29T03:36:32.685Z,6.40
2019-04-29T03:41:39.144Z,6.40
2019-04-29T03:46:45.915Z,6.50
2019-04-29T03:51:52.526Z,6.50
2019-04-29T03:56:59.199Z,6.50
2019-04-29T04:02:13.260Z,6.50
2019-04-29T04:07:37.691Z,6.50
2019-04-29T04:12:44.317Z,6.60
2019-04-29T04:17:57.716Z,6.60
2019-04-29T04:23:04.626Z,6.70
2019-04-29T04:28:11.210Z,6.80
2019-04-29T04:33:17.776Z,6.90
2019-04-29T04:38:24.357Z,7.00
2019-04-29T04:43:30.809Z,7.00
2019-04-29T04:48:37.273Z,7.10
2019-04-29T04:53:43.802Z,7.20
2019-04-29T04:58:50.377Z,7.30
2019-04-29T05:03:57.049Z,7.40
2019-04-29T05:09:05.404Z,7.40
2019-04-29T05:14:12.269Z,7.50
2019-04-29T05:19:18.723Z,7.60
2019-04-29T05:24:25.368Z,7.60
2019-04-29T05:29:31.882Z,7.60
2019-04-29T05:34:41.825Z,7.60
2019-04-29T05:39:48.566Z,7.60
2019-04-29T05:45:04.910Z,7.70
2019-04-29T05:50:29.443Z,7.80
2019-04-29T05:55:36.077Z,7.90
2019-04-29T06:00:53.370Z,7.90
2019-04-29T06:06:00.061Z,8.00
2019-04-29T06:11:06.691Z,8.00
2019-04-29T06:16:16.113Z,8.00
2019-04-29T06:21:22.682Z,8.00
2019-04-29T06:26:29.332Z,8.10
2019-04-29T06:31:36.050Z,8.10
2019-04-29T06:36:42.746Z,8.20
2019-04-29T06:41:49.367Z,8.20
2019-04-29T06:46:56.314Z,8.10
2019-04-29T06:52:02.901Z,8.10
2019-04-29T06:57:09.423Z,8.10
2019-04-29T07:02:16.190Z,8.10
2019-04-29T07:07:22.886Z,8.10
2019-04-29T07:12:29.496Z,8.00
2019-04-29T07:17:36.498Z,8.00
2019-04-29T07:22:44.429Z,8.00
2019-04-29T07:27:50.867Z,8.00
2019-04-29T07:32:57.478Z,7.90
2019-04-29T07:38:04.445Z,7.90
2019-04-29T07:43:12.285Z,7.90
2019-04-29T07:48:18.811Z,7.90
2019-04-29T07:53:34.657Z,7.90
2019-04-29T07:58:33.728Z,7.90
2019-04-29T08:03:40.528Z,7.90
2019-04-29T08:08:55.496Z,7.90
2019-04-29T08:14:00.580Z,8.00
2019-04-29T08:19:07.249Z,7.90
2019-04-29T08:24:15.788Z,7.90
2019-04-29T08:29:22.059Z,8.00
2019-04-29T08:34:28.684Z,7.90
2019-04-29T08:39:35.169Z,7.90
2019-04-29T08:45:02.183Z,7.90
2019-04-29T08:50:10.035Z,7.90
2019-04-29T08:55:19.319Z,7.90
2019-04-29T09:00:25.105Z,7.90
2019-04-29T09:05:31.708Z,7.90
2019-04-29T09:10:38.366Z,7.90
2019-04-29T09:15:45.000Z,7.90
2019-04-29T09:20:51.440Z,7.80
2019-04-29T09:26:29.083Z,7.90
2019-04-29T09:31:35.695Z,7.90
2019-04-29T09:36:43.887Z,7.90
2019-04-29T09:42:03.251Z,8.00
2019-04-29T09:47:10.834Z,8.10
2019-04-29T09:52:17.528Z,8.20
2019-04-29T09:57:24.145Z,8.20
2019-04-29T10:02:36.778Z,8.20
2019-04-29T10:07:43.685Z,8.20
2019-04-29T10:12:50.309Z,8.30
2019-04-29T10:18:12.886Z,8.30
2019-04-29T10:23:19.435Z,8.20
2019-04-29T10:28:25.894Z,8.20
2019-04-29T10:33:32.813Z,8.10
2019-04-29T10:38:40.591Z,8.00
2019-04-29T10:44:16.020Z,7.90
2019-04-29T10:49:30.218Z,8.00
2019-04-29T10:54:36.924Z,8.00
2019-04-29T10:59:46.275Z,8.00
2019-04-29T11:04:56.779Z,8.10
2019-04-29T11:10:09.207Z,8.10
2019-04-29T11:15:18.226Z,8.10
2019-04-29T11:20:25.151Z,8.20
2019-04-29T11:25:51.323Z,8.20
2019-04-29T11:30:58.665Z,8.30
2019-04-29T11:36:10.462Z,8.30
2019-04-29T11:41:19.722Z,8.50
2019-04-29T11:46:25.340Z,8.70
2019-04-29T11:52:07.913Z,8.90
2019-04-29T11:56:53.236Z,9.10
2019-04-29T12:02:14.140Z,9.10
2019-04-29T12:07:21.328Z,9.10
2019-04-29T12:12:28.140Z,9.00
2019-04-29T12:17:50.370Z,8.90
2019-04-29T12:22:57.133Z,8.90
2019-04-29T12:28:18.088Z,8.90
2019-04-29T12:33:27.822Z,8.90
2019-04-29T12:38:52.189Z,8.90
2019-04-29T12:44:05.755Z,8.90
2019-04-29T12:49:13.854Z,8.90
2019-04-29T12:54:20.831Z,9.00
2019-04-29T12:59:30.571Z,9.00
2019-04-29T13:05:05.019Z,9.00
2019-04-29T13:10:20.758Z,8.90
2019-04-29T13:15:59.097Z,8.90
2019-04-29T13:21:10.236Z,9.00
2019-04-29T13:26:27.115Z,8.90
2019-04-29T13:31:37.507Z,9.00
2019-04-29T13:36:31.308Z,9.00
2019-04-29T13:41:57.277Z,9.00
2019-04-29T13:47:04.252Z,9.00
2019-04-29T13:52:11.257Z,9.00
2019-04-29T13:57:18.098Z,9.10
2019-04-29T14:02:36.870Z,9.10
2019-04-29T14:07:43.720Z,9.10
2019-04-29T14:13:00.840Z,9.10
2019-04-29T14:17:58.557Z,9.10
2019-04-29T14:23:05.544Z,9.10
2019-04-29T14:28:12.136Z,9.20
2019-04-29T14:33:24.231Z,9.20
2019-04-29T14:38:28.944Z,9.20
2019-04-29T14:43:55.034Z,9.20
2019-04-29T14:49:06.244Z,9.20
2019-04-29T14:54:12.909Z,9.30
2019-04-29T14:59:19.778Z,9.30
2019-04-29T15:04:29.625Z,9.30
2019-04-29T15:09:46.477Z,9.20
2019-04-29T15:15:02.658Z,9.30
2019-04-29T15:20:19.505Z,9.30
2019-04-29T15:25:26.223Z,9.30
2019-04-29T15:30:36.726Z,9.40
2019-04-29T15:35:41.121Z,9.40
2019-04-29T15:40:47.566Z,9.30
2019-04-29T15:45:54.176Z,9.40
2019-04-29T15:51:00.848Z,9.40
2019-04-29T15:56:27.052Z,9.40
2019-04-29T16:01:17.967Z,9.40
2019-04-29T16:06:41.808Z,9.50
2019-04-29T16:12:14.519Z,9.50
2019-04-29T16:17:20.714Z,9.50
2019-04-29T16:22:27.604Z,9.60
2019-04-29T16:27:34.136Z,9.60
2019-04-29T16:32:43.791Z,9.60
2019-04-29T16:37:50.449Z,9.60
2019-04-29T16:43:12.441Z,9.60
2019-04-29T16:48:19.172Z,9.60
2019-04-29T16:53:25.708Z,9.70
2019-04-29T16:58:32.388Z,9.70
2019-04-29T17:03:39.426Z,9.70
2019-04-29T17:09:23.469Z,9.70
2019-04-29T17:14:30.216Z,9.70
2019-04-29T17:19:36.907Z,9.70
2019-04-29T17:24:43.608Z,9.70
2019-04-29T17:30:16.003Z,9.70
2019-04-29T17:40:32.007Z,9.80
2019-04-29T17:45:45.915Z,9.80
2019-04-29T17:50:56.498Z,9.80
2019-04-29T17:56:17.515Z,9.80
2019-04-29T18:01:36.611Z,9.80
2019-04-29T18:06:49.997Z,9.80
2019-04-29T18:11:57.849Z,9.80
2019-04-29T18:17:06.434Z,9.80
2019-04-29T18:22:38.093Z,9.90
2019-04-29T18:27:49.124Z,9.80
2019-04-29T18:32:55.121Z,9.80
2019-04-29T18:38:07.504Z,9.90
2019-04-29T18:43:15.027Z,9.90
2019-04-29T18:48:21.754Z,9.90
2019-04-29T18:53:28.351Z,9.90
2019-04-29T18:58:35.602Z,10.00
2019-04-29T19:04:10.156Z,10.00
2019-04-29T19:09:19.845Z,10.00
2019-04-29T19:14:26.846Z,10.00
2019-04-29T19:19:35.830Z,10.10
2019-04-29T19:24:44.167Z,10.10
2019-04-29T19:29:49.857Z,10.10
2019-04-29T19:34:58.247Z,10.10
2019-04-29T19:40:08.055Z,10.10
2019-04-29T19:45:15.517Z,10.20
2019-04-29T19:50:22.322Z,10.20
2019-04-29T19:55:33.178Z,10.20
2019-04-29T20:00:39.128Z,10.10
2019-04-29T20:05:50.412Z,10.10
2019-04-29T20:11:10.918Z,10.10
2019-04-29T20:16:44.660Z,10.20
2019-04-29T20:21:48.549Z,10.20
2019-04-29T20:26:55.196Z,10.20
2019-04-29T20:32:01.954Z,10.30
2019-04-29T20:37:10.705Z,10.20
2019-04-29T20:42:17.229Z,10.20
2019-04-29T20:47:37.052Z,10.20
2019-04-29T20:52:42.419Z,10.20
2019-04-29T20:57:52.510Z,10.30
2019-04-29T21:02:57.418Z,10.30
2019-04-29T21:08:13.846Z,10.30
2019-04-29T21:13:20.681Z,10.30
2019-04-29T21:18:27.391Z,10.40
2019-04-29T21:23:35.535Z,10.40
2019-04-29T21:28:44.595Z,10.40
2019-04-29T21:33:54.307Z,10.40
2019-04-29T21:39:10.853Z,10.30
2019-04-29T21:44:19.122Z,10.30
2019-04-29T21:49:25.851Z,10.20
2019-04-29T21:54:32.451Z,10.10
2019-04-29T21:59:41.490Z,10.10
2019-04-29T22:04:47.787Z,10.10
2019-04-29T22:09:55.711Z,10.00
2019-04-29T22:15:02.475Z,9.90
2019-04-29T22:20:10.998Z,9.90
2019-04-29T22:25:18.683Z,9.80
2019-04-29T22:30:26.558Z,9.70
2019-04-29T22:35:37.289Z,9.50
2019-04-29T22:40:42.941Z,9.40
2019-04-29T22:45:49.783Z,9.20
2019-04-29T22:50:56.318Z,9.10
2019-04-29T22:56:02.844Z,9.00
2019-04-29T23:01:09.811Z,8.80
2019-04-29T23:06:16.477Z,8.70
2019-04-29T23:11:23.034Z,8.60
2019-04-29T23:16:31.519Z,8.60
2019-04-29T23:22:06.105Z,8.40
2019-04-29T23:27:16.317Z,8.30
2019-04-29T23:32:21.255Z,8.30
2019-04-29T23:37:29.459Z,8.20
2019-04-29T23:42:36.316Z,8.10
2019-04-29T23:47:46.833Z,7.90
2019-04-29T23:52:52.038Z,7.80
2019-04-29T23:58:11.426Z,7.70
